Time;durP1;ratioP1;P1;durP2;ratioP2;P2;SDS_P1;SDS_P2;PMS_P1;PMS_P2;Temp;Humidity;BMP_temperature;BMP_pressure;BME280_temperature;BME280_humidity;BME280_pressure;Samples;Min_cycle;Max_cycle;Signal;HPM_P1;HPM_P2
2022/01/13 00:02:13;;;;;;;53.90;27.03;;;;;;;-2.11;100.00;97353.97;5111201;28;20172;-58
2022/01/13 00:04:38;;;;;;;58.20;27.40;;;;;;;-2.03;100.00;97345.34;5111145;28;20201;-59
2022/01/13 00:07:05;;;;;;;55.93;25.70;;;;;;;-2.00;100.00;97339.47;5111096;28;20263;-59
2022/01/13 00:09:30;;;;;;;59.20;26.10;;;;;;;-1.98;100.00;97331.94;5093800;28;20205;-59
2022/01/13 00:11:57;;;;;;;62.23;28.27;;;;;;;-2.00;100.00;97342.91;5110441;28;20219;-59
2022/01/13 00:14:36;;;;;;;58.20;27.13;;;;;;;-1.97;100.00;97342.38;5110883;28;20197;-71
2022/01/13 00:19:49;;;;;;;57.90;27.33;;;;;;;-1.99;100.00;97357.09;5094954;28;20226;-70
2022/01/13 00:24:50;;;;;;;61.73;27.57;;;;;;;-2.04;100.00;97354.47;5094468;28;20219;-71
2022/01/13 00:27:16;;;;;;;60.97;26.80;;;;;;;-2.13;100.00;97356.09;5109138;28;20234;-70
2022/01/13 00:29:44;;;;;;;56.10;25.37;;;;;;;-2.19;100.00;97358.00;5110407;28;20215;-60
2022/01/13 00:32:12;;;;;;;54.17;25.50;;;;;;;-2.18;100.00;97364.16;5110123;28;20200;-60
2022/01/13 00:34:38;;;;;;;58.90;25.97;;;;;;;-2.16;100.00;97361.97;5109461;28;20238;-60
2022/01/13 00:37:03;;;;;;;56.40;25.97;;;;;;;-2.21;100.00;97365.50;5110188;28;20197;-59
2022/01/13 00:39:29;;;;;;;62.27;26.83;;;;;;;-2.29;100.00;97365.25;5110210;28;20200;-60
2022/01/13 00:41:54;;;;;;;55.63;26.40;;;;;;;-2.18;100.00;97374.84;5110147;28;20192;-60
2022/01/13 00:44:21;;;;;;;58.50;26.17;;;;;;;-2.06;100.00;97378.00;5110442;28;20197;-60
2022/01/13 00:46:50;;;;;;;60.50;26.53;;;;;;;-2.10;100.00;97383.13;5110273;28;20192;-59
2022/01/13 00:49:15;;;;;;;58.20;26.97;;;;;;;-2.11;100.00;97386.84;5109776;28;20192;-72
2022/01/13 00:51:42;;;;;;;57.87;26.60;;;;;;;-2.10;100.00;97382.31;5109692;28;20246;-60
2022/01/13 00:54:08;;;;;;;57.73;26.80;;;;;;;-2.07;100.00;97368.38;5109849;28;20575;-59
2022/01/13 00:56:35;;;;;;;57.43;26.37;;;;;;;-2.15;100.00;97377.75;5109696;28;20207;-60
2022/01/13 00:59:07;;;;;;;60.03;28.20;;;;;;;-2.14;100.00;97378.56;5110085;28;20675;-60
2022/01/13 01:01:33;;;;;;;61.47;26.60;;;;;;;-2.09;100.00;97383.91;5110342;28;20200;-60
2022/01/13 01:03:58;;;;;;;57.33;26.13;;;;;;;-2.13;100.00;97382.84;5109973;28;20211;-59
2022/01/13 01:06:23;;;;;;;58.77;26.53;;;;;;;-2.19;100.00;97379.38;5110266;28;20196;-59
2022/01/13 01:08:49;;;;;;;56.90;25.67;;;;;;;-2.29;100.00;97373.28;5109670;28;20206;-53
2022/01/13 01:11:14;;;;;;;56.93;26.17;;;;;;;-2.36;100.00;97370.09;5109966;28;20193;-54
2022/01/13 01:13:40;;;;;;;52.73;25.63;;;;;;;-2.34;100.00;97359.94;5109971;28;20208;-52
2022/01/13 01:16:10;;;;;;;62.17;25.73;;;;;;;-2.39;100.00;97358.06;5110328;28;20232;-56
2022/01/13 01:18:49;;;;;;;62.43;28.60;;;;;;;-2.35;100.00;97369.00;5110359;28;20180;-55
2022/01/13 01:21:34;;;;;;;59.20;27.73;;;;;;;-2.34;100.00;97368.75;5093199;28;20241;-51
2022/01/13 01:26:57;;;;;;;56.30;26.37;;;;;;;-2.20;100.00;97371.63;5094302;28;20536;-71
2022/01/13 01:29:31;;;;;;;59.47;26.63;;;;;;;-2.12;100.00;97384.47;5109914;28;20236;-71
2022/01/13 01:31:57;;;;;;;61.83;26.47;;;;;;;-2.23;100.00;97377.56;5110086;28;20203;-69
2022/01/13 01:37:18;;;;;;;59.30;27.37;;;;;;;-2.19;100.00;97378.59;5094055;28;20211;-71
2022/01/13 01:39:48;;;;;;;54.73;26.33;;;;;;;-2.16;100.00;97378.03;5113086;28;20203;-71
2022/01/13 01:42:15;;;;;;;59.97;27.97;;;;;;;-2.09;100.00;97383.91;5112979;28;20253;-70
2022/01/13 01:44:44;;;;;;;61.00;27.23;;;;;;;-2.01;100.00;97376.09;5113251;28;20196;-58
2022/01/13 01:47:16;;;;;;;58.07;26.47;;;;;;;-2.02;100.00;97374.50;5113222;28;20287;-75
2022/01/13 01:49:43;;;;;;;55.10;24.63;;;;;;;-2.06;100.00;97378.00;5112924;28;20197;-75
2022/01/13 01:52:11;;;;;;;57.23;25.70;;;;;;;-2.10;100.00;97376.94;5113114;28;20200;-75
2022/01/13 01:54:37;;;;;;;55.90;25.53;;;;;;;-2.24;100.00;97375.94;5095611;28;20184;-76
2022/01/13 01:57:04;;;;;;;52.10;24.60;;;;;;;-2.43;100.00;97372.25;5113271;28;20211;-75
2022/01/13 01:59:32;;;;;;;53.37;25.33;;;;;;;-2.30;100.00;97377.03;5113013;28;20197;-76
2022/01/13 02:01:59;;;;;;;54.87;26.17;;;;;;;-2.37;100.00;97371.19;5113007;28;20207;-53
2022/01/13 02:04:27;;;;;;;58.43;25.77;;;;;;;-2.34;100.00;97376.75;5112386;28;20196;-60
2022/01/13 02:06:54;;;;;;;60.20;25.60;;;;;;;-2.29;100.00;97368.75;5112538;28;20196;-60
2022/01/13 02:09:20;;;;;;;51.20;25.03;;;;;;;-2.29;100.00;97368.75;5113100;28;20227;-60
2022/01/13 02:11:51;;;;;;;52.97;25.67;;;;;;;-2.36;100.00;97368.22;5112299;28;20549;-60
2022/01/13 02:16:57;;;;;;;55.27;24.77;;;;;;;-2.22;100.00;97369.22;5096855;28;20192;-60
2022/01/13 02:19:24;;;;;;;52.67;24.23;;;;;;;-2.17;100.00;97369.22;5112541;28;20184;-53
2022/01/13 02:21:51;;;;;;;53.83;23.60;;;;;;;-2.28;100.00;97364.19;5112709;28;20578;-58
2022/01/13 02:24:17;;;;;;;55.40;24.53;;;;;;;-2.34;100.00;97370.63;5112507;28;20208;-58
2022/01/13 02:26:42;;;;;;;48.37;23.47;;;;;;;-2.29;100.00;97362.59;5112767;28;20287;-58
2022/01/13 02:29:08;;;;;;;49.10;23.50;;;;;;;-2.23;100.00;97362.28;5095260;28;20209;-58
2022/01/13 02:31:33;;;;;;;51.70;24.37;;;;;;;-2.20;100.00;97359.06;5111982;28;20264;-59
2022/01/13 02:33:59;;;;;;;55.40;24.80;;;;;;;-2.18;100.00;97358.81;5112136;28;20231;-58
2022/01/13 02:36:25;;;;;;;51.13;23.50;;;;;;;-2.19;100.00;97355.31;5112407;28;20196;-59
2022/01/13 02:38:55;;;;;;;48.53;24.93;;;;;;;-2.16;100.00;97351.28;5111964;28;20196;-77
2022/01/13 02:41:24;;;;;;;49.20;23.20;;;;;;;-2.19;100.00;97349.97;5112069;28;20196;-53
2022/01/13 02:43:57;;;;;;;51.47;23.57;;;;;;;-2.14;100.00;97349.16;5112205;28;20246;-53
2022/01/13 02:49:19;;;;;;;52.60;24.63;;;;;;;-2.03;100.00;97348.03;5074812;28;20207;-55
2022/01/13 02:51:48;;;;;;;51.73;23.43;;;;;;;-2.07;100.00;97349.66;5094387;28;20200;-56
2022/01/13 02:54:13;;;;;;;55.00;24.80;;;;;;;-2.00;100.00;97350.94;5111761;28;20212;-55
2022/01/13 02:56:40;;;;;;;51.93;23.30;;;;;;;-1.98;100.00;97350.66;5111950;28;20238;-58
2022/01/13 02:59:06;;;;;;;47.20;22.03;;;;;;;-1.97;100.00;97365.66;5111907;28;20203;-61
2022/01/13 03:01:32;;;;;;;46.90;23.50;;;;;;;-1.98;100.00;97364.03;5111318;28;20201;-60
2022/01/13 03:04:00;;;;;;;46.53;22.33;;;;;;;-2.00;100.00;97364.31;5094756;28;20200;-60
2022/01/13 03:06:33;;;;;;;48.47;22.50;;;;;;;-1.96;100.00;97360.03;5111896;28;20196;-60
2022/01/13 03:08:59;;;;;;;47.37;22.00;;;;;;;-1.95;100.00;97361.63;5112109;28;20188;-60
2022/01/13 03:11:32;;;;;;;47.23;22.40;;;;;;;-1.97;100.00;97365.66;5111136;28;20192;-60
2022/01/13 03:13:57;;;;;;;47.40;23.10;;;;;;;-1.95;100.00;97380.38;5111365;28;20558;-59
2022/01/13 03:16:23;;;;;;;50.47;24.30;;;;;;;-2.03;100.00;97382.81;5111489;28;20197;-58
2022/01/13 03:18:48;;;;;;;46.47;22.77;;;;;;;-2.09;100.00;97379.34;5111227;28;20238;-59
2022/01/13 03:21:14;;;;;;;47.70;23.37;;;;;;;-2.11;100.00;97375.34;5111804;28;20275;-57
2022/01/13 03:23:39;;;;;;;49.80;23.07;;;;;;;-2.16;100.00;97372.69;5111210;28;20235;-58
2022/01/13 03:26:05;;;;;;;55.37;24.63;;;;;;;-2.25;100.00;97377.00;5111342;28;20204;-60
2022/01/13 03:28:38;;;;;;;55.20;26.33;;;;;;;-2.35;100.00;97374.38;5111404;28;20196;-59
2022/01/13 03:31:05;;;;;;;47.90;24.03;;;;;;;-2.38;100.00;97381.06;5111138;28;20291;-54
2022/01/13 03:33:31;;;;;;;50.43;23.90;;;;;;;-2.32;100.00;97385.34;5111449;28;20220;-54
2022/01/13 03:35:58;;;;;;;50.17;23.03;;;;;;;-2.25;100.00;97379.69;5093824;28;20271;-61
2022/01/13 03:38:25;;;;;;;46.70;23.23;;;;;;;-2.17;100.00;97384.47;5111581;28;20197;-60
2022/01/13 03:40:51;;;;;;;48.10;21.57;;;;;;;-2.21;100.00;97378.06;5110890;28;20188;-60
2022/01/13 03:43:17;;;;;;;50.67;24.57;;;;;;;-2.24;100.00;97371.38;5111239;28;20246;-60
2022/01/13 03:45:43;;;;;;;44.23;22.77;;;;;;;-2.22;100.00;97373.78;5111530;28;20196;-60
2022/01/13 03:48:09;;;;;;;49.40;23.53;;;;;;;-2.30;100.00;97361.00;5110984;28;20253;-60
2022/01/13 03:50:35;;;;;;;48.07;23.37;;;;;;;-2.29;100.00;97358.03;5110667;28;20193;-58
2022/01/13 03:53:03;;;;;;;49.63;23.60;;;;;;;-2.31;100.00;97354.03;5111353;28;20223;-59
2022/01/13 03:55:35;;;;;;;55.03;25.13;;;;;;;-2.29;100.00;97370.59;5094146;28;20193;-60
2022/01/13 03:58:12;;;;;;;51.93;23.93;;;;;;;-2.28;100.00;97356.16;5094038;28;20227;-60
2022/01/13 04:01:16;;;;;;;54.10;24.73;;;;;;;-2.29;100.00;97362.59;5094248;28;20211;-60
2022/01/13 04:03:42;;;;;;;54.30;25.00;;;;;;;-2.42;100.00;97358.63;5109980;28;20200;-60
2022/01/13 04:06:33;;;;;;;53.33;23.63;;;;;;;-2.45;100.00;97358.38;5111271;28;20204;-60
2022/01/13 04:08:58;;;;;;;52.03;24.20;;;;;;;-2.44;100.00;97359.97;5093623;28;20200;-54
2022/01/13 04:11:28;;;;;;;48.97;23.70;;;;;;;-2.50;100.00;97350.34;5110848;28;20192;-70
2022/01/13 04:14:00;;;;;;;50.93;23.23;;;;;;;-2.41;100.00;97351.41;5093982;28;20635;-58
2022/01/13 04:16:33;;;;;;;51.60;25.03;;;;;;;-2.39;100.00;97354.59;5111075;28;20214;-60
2022/01/13 04:19:05;;;;;;;56.80;24.77;;;;;;;-2.42;100.00;97347.09;5093233;28;20208;-58
2022/01/13 04:21:35;;;;;;;52.33;23.03;;;;;;;-2.47;100.00;97349.81;5093220;28;20197;-59
2022/01/13 04:24:02;;;;;;;47.37;22.97;;;;;;;-2.48;100.00;97350.88;5110400;28;20255;-58
2022/01/13 04:26:30;;;;;;;51.80;24.10;;;;;;;-2.51;100.00;97354.09;5110550;28;20653;-59
2022/01/13 04:31:38;;;;;;;54.33;23.80;;;;;;;-2.71;100.00;97372.84;5094729;28;20203;-60
2022/01/13 04:34:04;;;;;;;53.70;24.33;;;;;;;-2.71;100.00;97370.97;5110493;28;20303;-60
2022/01/13 04:36:29;;;;;;;50.50;23.00;;;;;;;-2.72;100.00;97369.38;5110138;28;20208;-59
2022/01/13 04:38:54;;;;;;;50.40;23.13;;;;;;;-2.69;100.00;97379.53;5110010;28;20201;-60
2022/01/13 04:41:30;;;;;;;52.50;23.53;;;;;;;-2.65;100.00;97379.78;5110740;28;20242;-59
2022/01/13 04:43:56;;;;;;;44.47;21.63;;;;;;;-2.75;100.00;97375.25;5110216;28;20192;-59
2022/01/13 04:46:21;;;;;;;51.03;23.37;;;;;;;-2.75;100.00;97379.78;5093129;28;20207;-60
2022/01/13 04:48:46;;;;;;;46.70;22.67;;;;;;;-2.69;100.00;97376.06;5110061;28;20226;-56
2022/01/13 04:51:12;;;;;;;50.80;22.90;;;;;;;-2.71;100.00;97370.16;5109873;28;20189;-55
2022/01/13 04:53:38;;;;;;;53.47;24.07;;;;;;;-2.65;100.00;97369.09;5109659;28;20205;-54
2022/01/13 04:56:09;;;;;;;52.23;23.47;;;;;;;-2.68;100.00;97364.28;5109861;28;20253;-54
2022/01/13 04:58:35;;;;;;;48.40;22.43;;;;;;;-2.68;100.00;97361.63;5110305;28;20200;-56
2022/01/13 05:01:00;;;;;;;48.30;22.17;;;;;;;-2.73;100.00;97361.63;5110005;28;20196;-55
2022/01/13 05:03:26;;;;;;;48.40;22.13;;;;;;;-2.70;100.00;97355.75;5110051;28;20215;-56
2022/01/13 05:05:51;;;;;;;49.50;23.17;;;;;;;-2.79;100.00;97357.34;5109518;28;20193;-60
2022/01/13 05:08:17;;;;;;;47.80;22.07;;;;;;;-2.78;100.00;97358.94;5109683;28;20251;-53
2022/01/13 05:10:42;;;;;;;47.23;21.30;;;;;;;-2.85;100.00;97358.47;5109904;28;20279;-55
2022/01/13 05:13:10;;;;;;;44.10;20.23;;;;;;;-2.86;100.00;97362.19;5110911;28;20231;-53
2022/01/13 05:15:37;;;;;;;43.00;20.57;;;;;;;-2.91;100.00;97365.69;5096168;28;20197;-55
2022/01/13 05:18:14;;;;;;;45.23;19.40;;;;;;;-2.87;100.00;97371.28;5113928;28;20193;-53
2022/01/13 05:20:45;;;;;;;47.67;21.17;;;;;;;-2.86;100.00;97372.88;5113123;28;20199;-56
2022/01/13 05:23:11;;;;;;;44.27;20.93;;;;;;;-2.86;100.00;97378.22;5113309;28;20197;-60
2022/01/13 05:25:38;;;;;;;44.67;20.97;;;;;;;-2.92;100.00;97373.97;5113780;28;20218;-60
2022/01/13 05:28:04;;;;;;;43.93;20.73;;;;;;;-2.94;100.00;97386.78;5112948;28;20254;-60
2022/01/13 05:30:29;;;;;;;42.67;20.20;;;;;;;-2.94;100.00;97384.09;5112902;28;20287;-60
2022/01/13 05:32:56;;;;;;;45.23;20.53;;;;;;;-2.96;100.00;97378.25;5095662;28;20216;-60
2022/01/13 05:35:22;;;;;;;44.07;20.87;;;;;;;-3.00;100.00;97382.50;5113595;28;20215;-60
2022/01/13 05:37:47;;;;;;;44.10;21.23;;;;;;;-3.00;100.00;97377.16;5113276;28;20193;-62
2022/01/13 05:40:13;;;;;;;44.57;19.93;;;;;;;-3.08;100.00;97380.38;5112720;28;20291;-59
2022/01/13 05:42:39;;;;;;;40.13;19.93;;;;;;;-3.11;100.00;97380.88;5113050;28;20215;-72
2022/01/13 05:45:06;;;;;;;42.83;19.67;;;;;;;-3.20;100.00;97390.53;5112828;28;20196;-58
2022/01/13 05:47:33;;;;;;;39.63;19.00;;;;;;;-3.32;100.00;97400.66;5095791;28;20245;-58
2022/01/13 05:49:58;;;;;;;40.03;18.97;;;;;;;-3.35;100.00;97401.19;5112915;28;20200;-59
2022/01/13 05:52:23;;;;;;;40.67;19.70;;;;;;;-3.27;100.00;97393.47;5112497;28;20228;-59
2022/01/13 05:54:48;;;;;;;39.07;19.77;;;;;;;-3.27;100.00;97393.47;5112753;28;20203;-59
2022/01/13 05:57:14;;;;;;;45.10;20.43;;;;;;;-3.33;100.00;97399.03;5112355;28;20529;-59
2022/01/13 05:59:39;;;;;;;42.73;19.80;;;;;;;-3.36;100.00;97395.03;5112789;28;20199;-76
2022/01/13 06:02:05;;;;;;;42.03;19.30;;;;;;;-3.40;100.00;97396.63;5112791;28;20196;-59
2022/01/13 06:04:31;;;;;;;48.77;20.90;;;;;;;-3.35;100.00;97387.84;5112537;28;20192;-60
2022/01/13 06:06:56;;;;;;;42.70;20.63;;;;;;;-3.36;100.00;97399.59;5112125;28;20251;-59
2022/01/13 06:09:21;;;;;;;44.70;21.07;;;;;;;-3.34;100.00;97397.44;5112766;28;20211;-59
2022/01/13 06:12:02;;;;;;;46.57;21.23;;;;;;;-3.38;100.00;97412.41;5112672;28;20201;-59
2022/01/13 06:14:27;;;;;;;42.13;19.57;;;;;;;-3.32;100.00;97409.47;5113100;28;20277;-59
2022/01/13 06:16:53;;;;;;;44.43;21.23;;;;;;;-3.32;100.00;97416.69;5112347;28;20204;-60
2022/01/13 06:19:18;;;;;;;44.87;20.60;;;;;;;-3.36;100.00;97407.59;5095341;28;20208;-71
2022/01/13 06:21:44;;;;;;;44.73;21.10;;;;;;;-3.22;100.00;97419.34;5112420;28;20196;-73
2022/01/13 06:24:09;;;;;;;42.83;21.00;;;;;;;-3.10;100.00;97415.34;5111813;28;20192;-74
2022/01/13 06:26:34;;;;;;;42.27;20.67;;;;;;;-3.01;100.00;97412.94;5111489;28;20252;-73
2022/01/13 06:29:00;;;;;;;44.13;20.40;;;;;;;-2.94;100.00;97413.50;5112304;28;20218;-72
2022/01/13 06:31:25;;;;;;;44.30;21.37;;;;;;;-2.88;100.00;97412.44;5111759;28;20277;-72
2022/01/13 06:33:50;;;;;;;44.77;21.83;;;;;;;-2.86;100.00;97415.63;5112620;28;20299;-74
2022/01/13 06:36:16;;;;;;;46.47;22.13;;;;;;;-2.82;100.00;97424.69;5112579;28;20587;-57
2022/01/13 06:38:48;;;;;;;40.03;19.33;;;;;;;-2.88;100.00;97429.25;5096192;28;20287;-59
2022/01/13 06:41:14;;;;;;;42.40;20.37;;;;;;;-2.88;100.00;97433.81;5111801;28;20660;-59
2022/01/13 06:43:39;;;;;;;42.23;20.53;;;;;;;-2.95;100.00;97433.28;5112130;28;20249;-59
2022/01/13 06:46:05;;;;;;;46.27;20.73;;;;;;;-3.00;100.00;97427.91;5111792;28;20200;-59
2022/01/13 06:48:30;;;;;;;42.37;20.83;;;;;;;-3.03;100.00;97437.25;5111842;28;20189;-60
2022/01/13 06:50:55;;;;;;;42.80;20.57;;;;;;;-3.11;100.00;97434.31;5112285;28;20196;-59
2022/01/13 06:53:21;;;;;;;43.00;20.33;;;;;;;-3.22;100.00;97430.84;5111781;28;20234;-59
2022/01/13 06:55:47;;;;;;;48.17;21.97;;;;;;;-3.16;100.00;97436.97;5112081;28;20649;-60
2022/01/13 06:58:13;;;;;;;43.63;21.17;;;;;;;-3.07;100.00;97422.06;5112110;28;20193;-60
2022/01/13 07:00:38;;;;;;;42.00;21.07;;;;;;;-3.10;100.00;97420.69;5111326;28;20196;-60
2022/01/13 07:03:04;;;;;;;46.50;21.83;;;;;;;-3.18;100.00;97423.13;5111562;28;20256;-60
2022/01/13 07:05:30;;;;;;;42.93;20.53;;;;;;;-3.22;100.00;97427.34;5112363;28;20192;-61
2022/01/13 07:07:55;;;;;;;44.50;20.53;;;;;;;-3.21;100.00;97429.75;5111787;28;20197;-59
2022/01/13 07:10:21;;;;;;;43.70;19.93;;;;;;;-3.33;100.00;97439.09;5111821;28;20215;-60
2022/01/13 07:12:47;;;;;;;46.90;20.80;;;;;;;-3.43;100.00;97436.41;5111286;28;20212;-69
2022/01/13 07:15:12;;;;;;;41.83;19.57;;;;;;;-3.53;100.00;97438.00;5111121;28;20206;-57
2022/01/13 07:17:38;;;;;;;44.23;20.50;;;;;;;-3.53;100.00;97440.66;5111252;28;20200;-72
2022/01/13 07:20:05;;;;;;;42.50;20.20;;;;;;;-3.46;100.00;97430.53;5110800;28;20657;-72
2022/01/13 07:22:31;;;;;;;46.07;21.07;;;;;;;-3.43;100.00;97442.53;5094392;28;20192;-73
2022/01/13 07:24:56;;;;;;;42.90;20.20;;;;;;;-3.47;100.00;97440.69;5111089;28;20204;-74
2022/01/13 07:27:21;;;;;;;41.23;19.13;;;;;;;-3.45;100.00;97437.47;5111130;28;20201;-69
2022/01/13 07:29:48;;;;;;;47.07;22.00;;;;;;;-3.33;100.00;97442.56;5111162;28;20223;-73
2022/01/13 07:32:15;;;;;;;44.77;20.47;;;;;;;-3.23;100.00;97447.13;5094104;28;20188;-58
2022/01/13 07:34:41;;;;;;;42.10;19.67;;;;;;;-3.23;100.00;97433.78;5111805;28;20201;-60
2022/01/13 07:37:07;;;;;;;43.03;20.33;;;;;;;-3.10;100.00;97446.63;5111344;28;20196;-60
2022/01/13 07:39:35;;;;;;;39.10;18.63;;;;;;;-3.19;100.00;97448.19;5110972;28;20201;-61
2022/01/13 07:42:01;;;;;;;42.03;20.20;;;;;;;-3.22;100.00;97449.53;5110923;28;20200;-60
2022/01/13 07:44:26;;;;;;;40.83;19.27;;;;;;;-3.23;100.00;97444.44;5111298;28;20200;-60
2022/01/13 07:46:52;;;;;;;42.50;19.60;;;;;;;-3.08;100.00;97449.81;5111007;28;20192;-61
2022/01/13 07:49:17;;;;;;;43.20;19.17;;;;;;;-2.94;100.00;97448.22;5110879;28;20680;-60
2022/01/13 07:51:42;;;;;;;37.40;17.87;;;;;;;-2.78;100.00;97445.28;5110651;28;20196;-60
2022/01/13 07:54:08;;;;;;;41.20;19.87;;;;;;;-2.68;100.00;97439.13;5110835;28;20204;-61
2022/01/13 07:56:34;;;;;;;40.43;18.23;;;;;;;-2.60;100.00;97441.25;5110954;28;20188;-61
2022/01/13 07:58:59;;;;;;;37.43;18.47;;;;;;;-2.59;100.00;97438.31;5111405;28;20199;-60
2022/01/13 08:01:24;;;;;;;37.60;18.80;;;;;;;-2.58;100.00;97445.28;5110541;28;20193;-62
2022/01/13 08:03:52;;;;;;;40.10;19.57;;;;;;;-2.47;100.00;97459.44;5111215;28;20257;-60
2022/01/13 08:06:18;;;;;;;41.63;20.53;;;;;;;-2.39;100.00;97457.03;5111199;28;20196;-60
2022/01/13 08:08:43;;;;;;;34.87;17.50;;;;;;;-2.35;100.00;97454.59;5110953;28;20197;-59
2022/01/13 08:11:09;;;;;;;37.53;18.40;;;;;;;-2.10;100.00;97462.56;5110921;28;20658;-60
2022/01/13 08:13:36;;;;;;;35.97;19.63;;;;;;;-1.95;100.00;97459.84;5110659;28;20220;-58
2022/01/13 08:16:06;;;;;;;36.47;18.30;;;;;;;-1.87;100.00;97459.28;5110539;28;20192;-59
2022/01/13 08:21:24;;;;;;;36.53;18.10;;;;;;;-1.40;100.00;97483.72;5078197;28;20222;-60
2022/01/13 08:23:50;;;;;;;35.80;18.47;;;;;;;-0.51;100.00;97473.47;5110872;28;20200;-59
2022/01/13 08:26:17;;;;;;;34.97;17.33;;;;;;;0.38;100.00;97468.25;5093799;28;20208;-57
2022/01/13 08:28:42;;;;;;;36.20;18.27;;;;;;;0.95;100.00;97492.22;5110741;28;20277;-59
2022/01/13 08:31:08;;;;;;;30.03;17.43;;;;;;;1.22;100.00;97489.69;5110828;28;20195;-56
2022/01/13 08:33:33;;;;;;;36.00;18.37;;;;;;;1.61;100.00;97487.47;5110759;28;20215;-57
2022/01/13 08:35:58;;;;;;;34.57;17.40;;;;;;;1.74;100.00;97496.66;5093121;28;20222;-57
2022/01/13 08:38:24;;;;;;;36.93;18.93;;;;;;;2.00;100.00;97481.69;5110212;28;20213;-53
2022/01/13 08:40:53;;;;;;;31.30;17.37;;;;;;;2.11;100.00;97488.50;5110296;28;20653;-57
2022/01/13 08:43:19;;;;;;;34.00;18.53;;;;;;;2.22;100.00;97476.41;5110024;28;20223;-57
2022/01/13 08:45:45;;;;;;;30.90;17.87;;;;;;;2.50;100.00;97484.22;5109876;28;20188;-68
2022/01/13 08:48:11;;;;;;;31.07;17.80;;;;;;;2.26;100.00;97478.19;5092408;28;20208;-68
2022/01/13 08:50:37;;;;;;;33.03;18.63;;;;;;;2.47;100.00;97490.19;5093212;28;20541;-70
2022/01/13 08:53:02;;;;;;;31.13;18.57;;;;;;;2.44;100.00;97496.19;5109830;28;20220;-68
2022/01/13 08:55:28;;;;;;;29.63;18.73;;;;;;;2.70;100.00;97491.09;5093590;28;20201;-67
2022/01/13 08:57:53;;;;;;;34.17;19.97;;;;;;;2.85;100.00;97494.25;5110046;28;20178;-69
2022/01/13 09:00:19;;;;;;;31.80;18.67;;;;;;;2.85;100.00;97496.94;5109796;28;20246;-68
2022/01/13 09:02:45;;;;;;;31.77;19.43;;;;;;;2.95;100.00;97501.38;5110315;28;20277;-56
2022/01/13 09:05:13;;;;;;;29.43;18.70;;;;;;;3.19;100.00;97508.09;5110269;28;20197;-54
2022/01/13 09:07:39;;;;;;;32.00;19.73;;;;;;;3.24;100.00;97499.88;5109797;28;20269;-55
2022/01/13 09:10:05;;;;;;;31.93;18.47;;;;;;;3.07;100.00;97510.50;5092893;28;20242;-51
2022/01/13 09:12:31;;;;;;;29.30;18.17;;;;;;;3.13;100.00;97509.31;5109409;28;20198;-55
2022/01/13 09:15:02;;;;;;;30.30;18.13;;;;;;;3.58;100.00;97503.97;5109719;28;20195;-54
2022/01/13 09:17:29;;;;;;;31.00;19.07;;;;;;;4.11;100.00;97508.28;5093397;28;20190;-54
2022/01/13 09:19:54;;;;;;;30.77;18.77;;;;;;;4.14;100.00;97506.88;5109871;28;20192;-55
2022/01/13 09:22:20;;;;;;;29.77;18.60;;;;;;;4.33;100.00;97502.84;5109676;28;20256;-66
2022/01/13 09:24:45;;;;;;;31.37;19.60;;;;;;;4.47;100.00;97510.84;5109560;28;20195;-53
2022/01/13 09:27:11;;;;;;;28.87;18.37;;;;;;;4.54;100.00;97513.91;5109930;28;20211;-55
2022/01/13 09:29:36;;;;;;;29.47;18.37;;;;;;;4.80;100.00;97498.56;5092980;28;20207;-54
2022/01/13 09:32:03;;;;;;;28.30;18.37;;;;;;;5.13;100.00;97497.09;5091922;28;20203;-54
2022/01/13 09:34:28;;;;;;;28.10;18.07;;;;;;;5.04;100.00;97501.66;5092667;28;20208;-55
2022/01/13 09:36:53;;;;;;;31.50;19.13;;;;;;;5.09;100.00;97506.91;5109129;28;20215;-55
2022/01/13 09:39:19;;;;;;;30.83;19.43;;;;;;;4.62;100.00;97507.75;5109378;28;20193;-56
2022/01/13 09:41:45;;;;;;;29.00;19.07;;;;;;;5.10;100.00;97503.13;5109077;28;20221;-52
2022/01/13 09:44:13;;;;;;;30.73;19.20;;;;;;;5.34;100.00;97511.59;5109546;28;20200;-57
2022/01/13 09:46:39;;;;;;;30.10;19.73;;;;;;;5.17;100.00;97511.56;5109253;28;20192;-58
2022/01/13 09:49:06;;;;;;;28.60;17.90;;;;;;;5.00;100.00;97512.34;5092843;28;20234;-56
2022/01/13 09:51:33;;;;;;;28.67;18.60;;;;;;;5.57;100.00;97518.47;5109801;28;20245;-57
2022/01/13 09:53:59;;;;;;;33.50;20.50;;;;;;;5.72;98.87;97518.00;5109260;28;20255;-58
2022/01/13 09:56:25;;;;;;;32.27;20.60;;;;;;;5.44;98.50;97519.41;5109644;28;20266;-57
2022/01/13 09:58:50;;;;;;;35.70;20.53;;;;;;;5.36;98.67;97525.63;5110198;28;20283;-55
2022/01/13 10:01:15;;;;;;;31.87;19.60;;;;;;;5.16;100.00;97523.50;5112326;28;20196;-66
2022/01/13 10:03:42;;;;;;;35.00;20.27;;;;;;;5.06;100.00;97518.41;5112763;28;20345;-69
2022/01/13 10:06:16;;;;;;;31.23;20.30;;;;;;;4.59;100.00;97513.78;5112458;28;20228;-67
2022/01/13 10:08:57;;;;;;;35.37;21.03;;;;;;;4.63;100.00;97520.19;5112667;28;20212;-67
2022/01/13 10:11:35;;;;;;;35.10;20.80;;;;;;;4.70;100.00;97529.41;5097203;28;20233;-65
2022/01/13 10:16:54;;;;;;;34.00;18.83;;;;;;;4.17;100.00;97519.78;5090042;28;20250;-54
2022/01/13 10:19:42;;;;;;;32.63;20.30;;;;;;;4.22;100.00;97509.63;5112970;28;20196;-51
2022/01/13 10:22:11;;;;;;;31.87;20.23;;;;;;;4.11;100.00;97512.94;5112336;28;20196;-49
2022/01/13 10:24:39;;;;;;;34.67;19.90;;;;;;;4.31;100.00;97506.97;5112297;28;20207;-49
2022/01/13 10:27:18;;;;;;;33.03;19.53;;;;;;;4.43;100.00;97504.47;5112257;28;20204;-48
2022/01/13 10:29:45;;;;;;;35.73;19.90;;;;;;;4.58;100.00;97495.94;5096442;28;20202;-48
2022/01/13 10:32:13;;;;;;;31.80;19.57;;;;;;;4.12;100.00;97487.47;5095433;28;20218;-51
2022/01/13 10:34:57;;;;;;;28.83;18.53;;;;;;;4.03;100.00;97489.31;5112605;28;20207;-69
2022/01/13 10:37:32;;;;;;;40.73;22.13;;;;;;;4.76;100.00;97492.19;5112427;28;20196;-66
2022/01/13 10:40:24;;;;;;;31.23;18.83;;;;;;;4.69;100.00;97491.84;5112104;28;20219;-73
2022/01/13 10:45:22;;;;;;;28.00;18.33;;;;;;;4.33;100.00;97477.72;5096256;28;20192;-72
2022/01/13 10:47:56;;;;;;;32.40;17.70;;;;;;;3.69;100.00;97472.91;5112504;28;20192;-71
2022/01/13 10:50:27;;;;;;;30.27;18.00;;;;;;;3.02;100.00;97478.25;5112527;28;20203;-71
2022/01/13 10:52:52;;;;;;;28.37;16.97;;;;;;;2.64;100.00;97486.91;5111582;28;20206;-67
2022/01/13 10:55:21;;;;;;;29.33;17.53;;;;;;;2.21;100.00;97478.31;5112379;28;20225;-58
2022/01/13 10:57:47;;;;;;;32.27;19.43;;;;;;;2.09;100.00;97475.31;5094753;28;20226;-67
2022/01/13 11:00:16;;;;;;;32.43;18.50;;;;;;;1.98;100.00;97475.78;5111971;28;20233;-67
2022/01/13 11:02:41;;;;;;;29.43;17.57;;;;;;;1.78;100.00;97476.16;5094719;28;20667;-68
2022/01/13 11:05:10;;;;;;;27.63;15.80;;;;;;;1.52;100.00;97472.25;5095246;28;20189;-67
2022/01/13 11:07:36;;;;;;;30.37;17.03;;;;;;;1.46;100.00;97471.53;5111812;28;20196;-67
2022/01/13 11:10:04;;;;;;;29.20;16.70;;;;;;;0.96;100.00;97482.28;5111794;28;20193;-68
2022/01/13 11:12:36;;;;;;;28.93;16.20;;;;;;;0.92;100.00;97483.94;5110998;28;20192;-55
2022/01/13 11:15:05;;;;;;;27.10;15.57;;;;;;;0.80;100.00;97470.91;5111881;28;20283;-57
2022/01/13 11:17:38;;;;;;;28.97;16.17;;;;;;;0.57;100.00;97469.09;5111255;28;20536;-58
2022/01/13 11:20:05;;;;;;;31.27;16.03;;;;;;;0.79;100.00;97455.88;5111635;28;20189;-59
2022/01/13 11:22:35;;;;;;;29.27;15.57;;;;;;;0.83;100.00;97453.44;5111333;28;20200;-59
2022/01/13 11:25:06;;;;;;;30.03;15.53;;;;;;;0.57;100.00;97450.28;5111363;28;20806;-58
2022/01/13 11:27:32;;;;;;;29.10;15.20;;;;;;;0.56;100.00;97443.31;5106222;28;20264;-58
2022/01/13 11:29:58;;;;;;;28.70;15.17;;;;;;;0.43;100.00;97444.00;5110988;28;20230;-68
2022/01/13 11:32:23;;;;;;;27.97;16.07;;;;;;;0.43;100.00;97433.25;5111207;28;20204;-79
2022/01/13 11:34:49;;;;;;;27.30;15.53;;;;;;;0.43;100.00;97425.19;5111228;28;20191;-59
2022/01/13 11:37:16;;;;;;;31.53;15.77;;;;;;;0.50;100.00;97425.63;5094076;28;20294;-59
2022/01/13 11:39:44;;;;;;;32.80;16.67;;;;;;;0.51;100.00;97429.91;5111061;28;20373;-59
2022/01/13 11:42:14;;;;;;;32.83;16.97;;;;;;;0.55;100.00;97430.97;5111486;28;20178;-58